< < Back
Terminal Aerodrome Forecast


Current Version              Previous Versions:   1  2  3  4  5  6  7  8  9  

Terminal Aerodrome Forecast

976
FTUS42 KTAE 311120
TAFVLD
TAF
KVLD 311120Z 3112/0112 00000KT 3SM BR FEW002
     FM311300 VRB04KT P6SM SCT060 SCT250=



Latest METAR

145
SAUS70 KWBC 312000 RRK
MTRVLD
METAR KVLD 311953Z 00000KT 10SM BKN060 31/20 A2988 RMK AO2 LTG DSNT E
AND SE AND NW SLP123 T03110200


USA.gov is the U.S. government's official web portal to all federal, state and local government web resources and services.